Time;durP1;ratioP1;P1;durP2;ratioP2;P2;SDS_P1;SDS_P2;PMS_P1;PMS_P2;Temp;Humidity;BMP_temperature;BMP_pressure;BME280_temperature;BME280_humidity;BME280_pressure;Samples;Min_cycle;Max_cycle;Signal;HPM_P1;HPM_P2
2023/11/11 00:01:34;;;;;;;1.15;0.85;;;;;;;;;;5040099;28;20021;-81
2023/11/11 00:04:00;;;;;;;1.70;1.17;;;;;;;;;;5040173;28;20051;-81
2023/11/11 00:06:27;;;;;;;2.28;1.42;;;;;;;;;;5040108;28;20017;-82
2023/11/11 00:08:53;;;;;;;1.10;0.80;;;;;;;;;;5040702;28;20041;-82
2023/11/11 00:11:20;;;;;;;1.25;1.00;;;;;;;;;;5060306;28;20020;-82
2023/11/11 00:13:46;;;;;;;1.83;0.88;;;;;;;;;;5060524;28;20035;-84
2023/11/11 00:16:12;;;;;;;1.00;0.90;;;;;;;;;;5060524;28;20031;-81
2023/11/11 00:18:39;;;;;;;1.10;0.80;;;;;;;;;;5060680;28;20468;-85
2023/11/11 00:21:05;;;;;;;1.27;0.85;;;;;;;;;;5060581;28;20395;-82
2023/11/11 00:23:31;;;;;;;0.90;0.80;;;;;;;;;;5060391;28;20082;-82
2023/11/11 00:25:57;;;;;;;0.88;0.70;;;;;;;;;;5095412;28;20031;-83
2023/11/11 00:28:23;;;;;;;1.23;1.10;;;;;;;;;;5102076;28;20029;-84
2023/11/11 00:30:50;;;;;;;0.90;0.80;;;;;;;;;;5102557;28;20435;-81
2023/11/11 00:33:16;;;;;;;0.82;0.70;;;;;;;;;;5102585;28;20110;-84
2023/11/11 00:35:42;;;;;;;0.85;0.73;;;;;;;;;;5101541;28;20023;-81
2023/11/11 00:38:10;;;;;;;1.13;0.95;;;;;;;;;;5101449;28;20062;-83
2023/11/11 00:40:39;;;;;;;1.23;0.90;;;;;;;;;;5101191;28;20023;-83
2023/11/11 00:43:05;;;;;;;0.88;0.70;;;;;;;;;;5101458;28;20028;-85
2023/11/11 00:45:31;;;;;;;1.13;0.90;;;;;;;;;;5101890;28;20024;-81
2023/11/11 00:47:57;;;;;;;0.80;0.70;;;;;;;;;;5101401;28;20413;-84
2023/11/11 00:50:23;;;;;;;1.35;1.08;;;;;;;;;;5100403;28;20024;-81
2023/11/11 00:53:11;;;;;;;1.10;0.80;;;;;;;;;;5101973;28;20055;-88
2023/11/11 00:55:37;;;;;;;2.63;1.10;;;;;;;;;;5105611;28;20030;-86
2023/11/11 00:58:04;;;;;;;2.55;1.15;;;;;;;;;;5123485;28;20016;-87
2023/11/11 01:00:31;;;;;;;1.63;1.10;;;;;;;;;;5107588;28;20090;-87
2023/11/11 01:02:58;;;;;;;0.82;0.75;;;;;;;;;;5125007;28;20485;-88
2023/11/11 01:05:26;;;;;;;1.63;1.00;;;;;;;;;;5104627;28;20027;-86
2023/11/11 01:07:52;;;;;;;1.65;1.08;;;;;;;;;;5104422;28;20095;-86
2023/11/11 01:10:23;;;;;;;1.30;0.90;;;;;;;;;;5122352;28;20047;-87
2023/11/11 01:12:51;;;;;;;0.93;0.82;;;;;;;;;;5121126;28;20027;-85
2023/11/11 01:15:41;;;;;;;0.93;0.73;;;;;;;;;;5103831;28;20024;-88
2023/11/11 01:18:43;;;;;;;1.38;1.00;;;;;;;;;;5108623;28;20043;-88
2023/11/11 01:24:27;;;;;;;0.95;0.88;;;;;;;;;;5065881;28;20048;-88
2023/11/11 01:51:07;;;;;;;1.00;0.90;;;;;;;;;;5029396;28;19913;-89
2023/11/11 01:53:35;;;;;;;1.20;0.88;;;;;;;;;;5021272;28;20120;-84
2023/11/11 01:56:25;;;;;;;1.23;0.90;;;;;;;;;;5023080;28;20029;-87
2023/11/11 06:53:53;;;;;;;1.52;1.17;;;;;;;;;;5029515;28;20037;-90
2023/11/11 09:01:25;;;;;;;0.93;0.80;;;;;;;;;;5024464;28;20082;-88
2023/11/11 09:13:52;;;;;;;1.05;0.80;;;;;;;;;;5028806;28;20052;-88
2023/11/11 09:38:15;;;;;;;0.85;0.80;;;;;;;;;;4869262;29;20109;-87
2023/11/11 09:40:42;;;;;;;0.70;0.70;;;;;;;;;;4868742;29;20194;-84
2023/11/11 09:43:09;;;;;;;1.15;1.05;;;;;;;;;;4867669;29;20119;-88
2023/11/11 09:45:35;;;;;;;0.63;0.63;;;;;;;;;;4867492;29;20021;-84
2023/11/11 09:48:02;;;;;;;0.60;0.60;;;;;;;;;;4867686;29;20471;-87
2023/11/11 09:50:29;;;;;;;0.88;0.70;;;;;;;;;;4869117;29;20021;-86
2023/11/11 09:52:56;;;;;;;0.82;0.70;;;;;;;;;;4884569;29;20036;-87
2023/11/11 09:55:23;;;;;;;0.90;0.77;;;;;;;;;;4925933;29;20036;-85
2023/11/11 09:57:52;;;;;;;0.80;0.70;;;;;;;;;;4907156;29;20119;-88
2023/11/11 10:00:19;;;;;;;0.98;0.85;;;;;;;;;;4965407;28;20105;-82
2023/11/11 10:02:45;;;;;;;0.65;0.65;;;;;;;;;;4982423;28;20050;-84
2023/11/11 10:05:11;;;;;;;1.52;0.90;;;;;;;;;;4983416;28;20026;-87
2023/11/11 10:07:38;;;;;;;1.17;0.75;;;;;;;;;;4983803;28;20046;-82
2023/11/11 10:10:11;;;;;;;0.73;0.70;;;;;;;;;;4983120;28;20433;-87
2023/11/11 10:12:39;;;;;;;0.82;0.70;;;;;;;;;;5000173;28;20034;-85
2023/11/11 10:15:07;;;;;;;0.85;0.70;;;;;;;;;;4984751;28;20022;-87
2023/11/11 10:17:39;;;;;;;0.82;0.70;;;;;;;;;;4983205;28;20027;-85
2023/11/11 10:20:10;;;;;;;0.60;0.60;;;;;;;;;;4983803;28;20085;-84
2023/11/11 10:22:45;;;;;;;0.50;0.50;;;;;;;;;;5001963;28;20062;-82
2023/11/11 10:25:17;;;;;;;1.10;1.00;;;;;;;;;;5001973;28;20121;-86
2023/11/11 10:27:49;;;;;;;0.63;0.63;;;;;;;;;;4988397;28;20034;-86
2023/11/11 10:30:33;;;;;;;0.50;0.50;;;;;;;;;;4986332;28;20406;-86
2023/11/11 10:33:04;;;;;;;0.70;0.70;;;;;;;;;;4998447;28;20033;-85
2023/11/11 10:35:30;;;;;;;2.17;1.52;;;;;;;;;;5021700;28;20500;-85
2023/11/11 10:37:57;;;;;;;1.40;1.17;;;;;;;;;;5004960;28;20156;-84
2023/11/11 10:40:23;;;;;;;0.85;0.70;;;;;;;;;;5023295;28;20113;-84
2023/11/11 10:42:50;;;;;;;1.00;0.70;;;;;;;;;;5023466;28;20026;-84
2023/11/11 10:45:16;;;;;;;0.90;0.70;;;;;;;;;;5017438;28;20022;-85
2023/11/11 10:47:43;;;;;;;0.95;0.70;;;;;;;;;;5005951;28;20057;-87
2023/11/11 10:50:11;;;;;;;1.45;1.13;;;;;;;;;;5004703;28;20087;-85
2023/11/11 10:52:39;;;;;;;0.80;0.70;;;;;;;;;;5002202;28;20057;-85
2023/11/11 10:55:07;;;;;;;0.70;0.60;;;;;;;;;;5002234;28;20117;-87
2023/11/11 10:57:36;;;;;;;0.63;0.60;;;;;;;;;;5003236;28;20049;-84
2023/11/11 11:00:16;;;;;;;0.85;0.75;;;;;;;;;;5003054;28;20039;-86
2023/11/11 11:02:43;;;;;;;1.73;0.80;;;;;;;;;;4944028;28;20039;-86
2023/11/11 11:05:13;;;;;;;0.70;0.60;;;;;;;;;;4968057;28;20039;-84
2023/11/11 11:07:46;;;;;;;0.73;0.60;;;;;;;;;;4983322;28;20175;-84
2023/11/11 11:10:19;;;;;;;0.70;0.68;;;;;;;;;;4928785;29;20064;-85
2023/11/11 11:13:08;;;;;;;0.80;0.80;;;;;;;;;;4919780;29;20028;-83
2023/11/11 11:15:40;;;;;;;1.17;0.82;;;;;;;;;;4906335;29;20031;-79
2023/11/11 11:18:12;;;;;;;0.88;0.88;;;;;;;;;;4909666;29;20028;-79
2023/11/11 11:20:39;;;;;;;;;;;;;;;;;;4904940;29;20492;-82
2023/11/11 11:23:07;;;;;;;0.90;0.80;;;;;;;;;;4921108;29;20054;-80
2023/11/11 11:25:33;;;;;;;0.75;0.63;;;;;;;;;;4921727;29;20579;-82
2023/11/11 11:28:12;;;;;;;0.90;0.80;;;;;;;;;;4921273;29;20047;-80
2023/11/11 11:30:38;;;;;;;1.08;0.88;;;;;;;;;;4922492;29;20032;-82
2023/11/11 11:33:06;;;;;;;0.90;0.70;;;;;;;;;;4923358;29;20032;-79
2023/11/11 11:35:35;;;;;;;0.90;0.80;;;;;;;;;;4915781;29;20042;-81
2023/11/11 11:38:03;;;;;;;0.80;0.73;;;;;;;;;;4944224;29;20066;-79
2023/11/11 11:40:29;;;;;;;0.93;0.70;;;;;;;;;;4977874;28;20157;-81
2023/11/11 11:42:57;;;;;;;0.80;0.73;;;;;;;;;;5023867;28;20018;-84
2023/11/11 11:45:32;;;;;;;0.90;0.70;;;;;;;;;;5023910;28;20045;-81
2023/11/11 11:47:58;;;;;;;0.57;0.57;;;;;;;;;;5023773;28;20034;-81
2023/11/11 11:50:25;;;;;;;0.60;0.60;;;;;;;;;;5023338;28;20029;-80
2023/11/11 11:52:51;;;;;;;0.60;0.60;;;;;;;;;;5021541;28;20440;-80
2023/11/11 11:55:18;;;;;;;0.60;0.60;;;;;;;;;;5015208;28;20108;-80
2023/11/11 11:57:57;;;;;;;0.50;0.50;;;;;;;;;;5023462;28;20022;-80
2023/11/11 12:00:24;;;;;;;0.70;0.70;;;;;;;;;;5023003;28;20029;-81
2023/11/11 12:02:50;;;;;;;0.70;0.70;;;;;;;;;;5021098;28;20113;-81
2023/11/11 12:05:17;;;;;;;0.88;0.70;;;;;;;;;;5013431;28;20027;-81
2023/11/11 12:07:48;;;;;;;0.80;0.70;;;;;;;;;;4996221;28;20076;-80
2023/11/11 12:10:14;;;;;;;0.60;0.60;;;;;;;;;;5023370;28;20022;-80
2023/11/11 12:12:41;;;;;;;0.60;0.60;;;;;;;;;;5022790;28;20117;-81
2023/11/11 12:15:11;;;;;;;0.63;0.63;;;;;;;;;;5021927;28;20026;-83
2023/11/11 12:17:40;;;;;;;0.68;0.68;;;;;;;;;;5020627;28;20129;-83
2023/11/11 12:20:07;;;;;;;0.95;0.85;;;;;;;;;;5004765;28;20034;-81
2023/11/11 12:22:33;;;;;;;0.50;0.50;;;;;;;;;;5003367;28;20182;-86
2023/11/11 12:24:59;;;;;;;0.80;0.68;;;;;;;;;;5006065;28;20080;-84
2023/11/11 12:27:28;;;;;;;0.60;0.60;;;;;;;;;;5007516;28;20035;-81
2023/11/11 12:29:54;;;;;;;0.65;0.65;;;;;;;;;;5004472;28;20053;-80
2023/11/11 12:32:20;;;;;;;0.60;0.60;;;;;;;;;;5001537;28;20022;-82
2023/11/11 12:34:50;;;;;;;1.00;0.73;;;;;;;;;;5002084;28;20030;-82
2023/11/11 12:37:22;;;;;;;1.23;0.88;;;;;;;;;;5011893;28;20149;-79
2023/11/11 12:39:52;;;;;;;1.23;0.90;;;;;;;;;;5021015;28;20022;-79
2023/11/11 12:42:25;;;;;;;1.00;0.70;;;;;;;;;;5019827;28;20061;-80
2023/11/11 12:44:51;;;;;;;1.45;0.80;;;;;;;;;;5019073;28;20481;-79
2023/11/11 12:47:17;;;;;;;0.70;0.70;;;;;;;;;;5013828;28;20027;-78
2023/11/11 12:49:50;;;;;;;0.70;0.60;;;;;;;;;;5001850;28;20030;-78
2023/11/11 12:52:16;;;;;;;1.00;0.90;;;;;;;;;;4998916;28;20559;-83
2023/11/11 12:54:43;;;;;;;0.98;0.93;;;;;;;;;;5007798;28;20033;-80
2023/11/11 12:57:10;;;;;;;0.70;0.70;;;;;;;;;;5016347;28;20030;-80
2023/11/11 12:59:36;;;;;;;0.93;0.80;;;;;;;;;;5020099;28;20037;-81
2023/11/11 13:02:06;;;;;;;1.30;1.02;;;;;;;;;;5001442;28;20069;-81
2023/11/11 13:04:32;;;;;;;0.80;0.80;;;;;;;;;;5000745;28;20030;-81
2023/11/11 13:07:02;;;;;;;0.70;0.70;;;;;;;;;;5006609;28;20027;-79
2023/11/11 13:09:41;;;;;;;1.08;0.95;;;;;;;;;;4999250;28;20389;-79
2023/11/11 13:12:07;;;;;;;0.60;0.60;;;;;;;;;;4998073;28;20195;-79
2023/11/11 13:14:34;;;;;;;0.60;0.60;;;;;;;;;;5000188;28;20026;-79
2023/11/11 13:17:04;;;;;;;0.70;0.70;;;;;;;;;;5013129;28;20089;-80
2023/11/11 13:19:34;;;;;;;0.88;0.85;;;;;;;;;;5017721;28;20030;-80
2023/11/11 13:22:02;;;;;;;0.60;0.60;;;;;;;;;;5013784;28;20098;-81
2023/11/11 13:24:28;;;;;;;0.85;0.85;;;;;;;;;;5017604;28;20084;-80
2023/11/11 13:26:54;;;;;;;0.70;0.70;;;;;;;;;;5016823;28;20551;-78
2023/11/11 13:29:20;;;;;;;0.60;0.60;;;;;;;;;;5016981;28;20026;-79
2023/11/11 13:31:47;;;;;;;0.95;0.85;;;;;;;;;;5018807;28;20018;-81
2023/11/11 13:34:13;;;;;;;0.88;0.82;;;;;;;;;;5017040;28;20032;-81
2023/11/11 13:36:41;;;;;;;0.60;0.60;;;;;;;;;;5017197;28;20048;-80
2023/11/11 13:39:34;;;;;;;0.63;0.63;;;;;;;;;;5016876;28;20030;-79
2023/11/11 13:41:56;;;;;;;0.65;0.65;;;;;;;;;;5019082;28;20030;-79
2023/11/11 13:44:22;;;;;;;1.17;0.80;;;;;;;;;;5017219;28;20030;-79
2023/11/11 13:46:48;;;;;;;0.60;0.60;;;;;;;;;;5016827;28;20033;-78
2023/11/11 13:49:14;;;;;;;0.65;0.65;;;;;;;;;;5017283;28;20037;-79
2023/11/11 13:51:41;;;;;;;0.93;0.82;;;;;;;;;;5000610;28;20034;-79
2023/11/11 13:54:07;;;;;;;0.82;0.80;;;;;;;;;;4996523;28;20133;-79
2023/11/11 13:56:33;;;;;;;1.25;1.15;;;;;;;;;;4995749;28;20019;-80
2023/11/11 13:59:00;;;;;;;0.73;0.73;;;;;;;;;;4994679;28;20121;-80
2023/11/11 14:01:28;;;;;;;1.42;0.90;;;;;;;;;;4994674;28;20382;-80
2023/11/11 14:03:55;;;;;;;0.75;0.75;;;;;;;;;;4995927;28;20046;-79
2023/11/11 14:06:22;;;;;;;0.63;0.60;;;;;;;;;;4995608;28;20488;-79
2023/11/11 14:08:50;;;;;;;0.60;0.60;;;;;;;;;;4995147;28;20125;-81
2023/11/11 14:11:18;;;;;;;0.60;0.60;;;;;;;;;;4996447;28;20113;-80
2023/11/11 14:13:44;;;;;;;0.60;0.60;;;;;;;;;;4995755;28;20386;-78
2023/11/11 14:16:10;;;;;;;0.40;0.40;;;;;;;;;;4996321;28;20030;-78
2023/11/11 14:18:36;;;;;;;0.60;0.60;;;;;;;;;;5012317;28;20026;-80
2023/11/11 14:21:03;;;;;;;0.70;0.70;;;;;;;;;;5017574;28;20026;-79
2023/11/11 14:23:29;;;;;;;0.55;0.55;;;;;;;;;;5014978;28;20111;-79
2023/11/11 14:25:56;;;;;;;0.75;0.70;;;;;;;;;;5015477;28;20091;-80
2023/11/11 14:28:22;;;;;;;0.73;0.73;;;;;;;;;;5014602;28;20089;-81
2023/11/11 14:30:50;;;;;;;1.63;1.23;;;;;;;;;;5014906;28;20117;-79
2023/11/11 14:33:17;;;;;;;1.10;1.00;;;;;;;;;;5014444;28;20109;-80
2023/11/11 14:35:45;;;;;;;0.60;0.60;;;;;;;;;;5016681;28;20032;-79
2023/11/11 14:38:12;;;;;;;0.70;0.70;;;;;;;;;;5016888;28;20034;-81
2023/11/11 14:40:39;;;;;;;0.80;0.80;;;;;;;;;;5016715;28;20030;-80
2023/11/11 14:43:07;;;;;;;0.93;0.80;;;;;;;;;;5000031;28;20480;-79
2023/11/11 14:45:35;;;;;;;0.70;0.70;;;;;;;;;;5018901;28;20085;-80
2023/11/11 14:48:01;;;;;;;0.85;0.85;;;;;;;;;;5016382;28;20026;-80
2023/11/11 14:50:30;;;;;;;0.88;0.88;;;;;;;;;;5018391;28;20030;-81
2023/11/11 14:52:56;;;;;;;1.23;0.95;;;;;;;;;;5019101;28;20018;-80
2023/11/11 14:55:24;;;;;;;1.17;0.98;;;;;;;;;;5016413;28;20018;-83
2023/11/11 15:00:41;;;;;;;1.02;0.88;;;;;;;;;;5024153;28;20052;-86
2023/11/11 15:03:11;;;;;;;0.73;0.70;;;;;;;;;;5015802;28;20038;-83
2023/11/11 15:05:38;;;;;;;1.02;0.82;;;;;;;;;;4980322;28;20509;-84
2023/11/11 15:08:04;;;;;;;1.08;0.98;;;;;;;;;;5012478;28;20034;-83
2023/11/11 15:10:31;;;;;;;1.10;0.90;;;;;;;;;;5012713;28;20022;-83
2023/11/11 15:12:57;;;;;;;0.85;0.80;;;;;;;;;;5018647;28;20061;-81
2023/11/11 15:15:23;;;;;;;1.33;0.88;;;;;;;;;;5001384;28;20056;-80
2023/11/11 15:17:50;;;;;;;1.40;0.70;;;;;;;;;;5002956;28;20037;-82
2023/11/11 15:20:19;;;;;;;0.70;0.70;;;;;;;;;;5001733;28;20022;-81
2023/11/11 15:22:50;;;;;;;0.82;0.80;;;;;;;;;;5020978;28;20038;-80
2023/11/11 15:25:19;;;;;;;0.63;0.60;;;;;;;;;;5002849;28;20037;-80
2023/11/11 15:27:46;;;;;;;0.63;0.63;;;;;;;;;;5003188;28;20049;-80
2023/11/11 15:30:17;;;;;;;1.02;0.93;;;;;;;;;;5004150;28;20085;-82
2023/11/11 15:32:43;;;;;;;1.45;0.93;;;;;;;;;;5004229;28;20121;-82
2023/11/11 15:35:09;;;;;;;0.85;0.80;;;;;;;;;;5003034;28;20072;-83
2023/11/11 15:37:37;;;;;;;0.90;0.80;;;;;;;;;;5002839;28;20482;-84
2023/11/11 15:40:05;;;;;;;1.38;1.00;;;;;;;;;;5003362;28;20424;-82
2023/11/11 15:42:42;;;;;;;0.80;0.70;;;;;;;;;;5002819;28;20025;-85
2023/11/11 15:45:11;;;;;;;0.93;0.80;;;;;;;;;;4983646;28;20104;-83
2023/11/11 15:47:42;;;;;;;1.00;0.80;;;;;;;;;;5015501;28;20497;-85
2023/11/11 15:50:12;;;;;;;1.02;0.82;;;;;;;;;;5019424;28;20026;-85
2023/11/11 15:52:39;;;;;;;0.93;0.73;;;;;;;;;;5021996;28;20598;-86
2023/11/11 15:55:06;;;;;;;2.30;0.95;;;;;;;;;;5003806;28;20034;-82
2023/11/11 15:57:33;;;;;;;1.20;0.98;;;;;;;;;;5002886;28;20022;-84
2023/11/11 15:59:59;;;;;;;0.98;0.80;;;;;;;;;;5005562;28;20061;-84
2023/11/11 16:02:26;;;;;;;1.10;0.80;;;;;;;;;;5004336;28;20046;-83
2023/11/11 16:04:52;;;;;;;3.17;1.23;;;;;;;;;;5020534;28;20035;-81
2023/11/11 16:07:18;;;;;;;1.10;0.80;;;;;;;;;;5020384;28;20120;-81
2023/11/11 16:09:45;;;;;;;1.15;0.80;;;;;;;;;;5022234;28;20033;-86
2023/11/11 16:12:12;;;;;;;0.95;0.82;;;;;;;;;;5022324;28;20034;-84
2023/11/11 16:14:39;;;;;;;1.58;1.27;;;;;;;;;;5019398;28;20029;-82
2023/11/11 16:17:05;;;;;;;1.27;1.05;;;;;;;;;;5021327;28;20096;-85
2023/11/11 16:19:33;;;;;;;0.73;0.68;;;;;;;;;;5023024;28;20021;-81
2023/11/11 16:21:58;;;;;;;0.88;0.70;;;358.70;2329.60;;;;;;5023784;28;20050;-85
2023/11/11 16:24:24;;;;;;;0.82;0.73;;;358.70;2329.60;;;;;;5004933;28;20041;-85
2023/11/11 16:26:52;;;;;;;0.90;0.80;;;358.80;2329.60;;;;;;5005886;28;20022;-84
2023/11/11 16:29:17;;;;;;;0.90;0.70;;;358.70;2329.60;;;;;;5005679;28;20037;-80
2023/11/11 16:31:43;;;;;;;0.80;0.80;;;358.70;2329.60;;;;;;5003706;28;20018;-81
2023/11/11 16:34:10;;;;;;;0.90;0.70;;;358.70;2329.60;;;;;;5003957;28;20113;-81
2023/11/11 16:36:36;;;;;;;0.80;0.70;;;358.80;2278.40;;;;;;5004628;28;20093;-82
2023/11/11 16:39:03;;;;;;;1.20;0.90;;;358.80;2278.40;;;;;;5004450;28;20061;-79
2023/11/11 16:41:30;;;;;;;1.60;0.90;;;358.70;2329.60;;;;;;5020309;28;20036;-79
2023/11/11 16:43:57;;;;;;;0.60;0.60;;;358.70;2329.60;;;;;;5001741;28;20448;-79
2023/11/11 16:46:24;;;;;;;0.70;0.60;;;358.60;2329.60;;;;;;5019050;28;20030;-85
2023/11/11 16:48:51;;;;;;;0.82;0.80;;;358.60;2329.60;;;;;;5003017;28;20104;-84
2023/11/11 16:51:18;;;;;;;0.70;0.63;;;358.50;2329.60;;;;;;5001663;28;20121;-78
2023/11/11 16:53:44;;;;;;;1.27;1.02;;;333.70;2329.60;;;;;;5017600;28;20030;-86
2023/11/11 16:56:13;;;;;;;0.60;0.60;;;358.50;2329.60;;;;;;5004830;28;20022;-86
2023/11/11 16:58:40;;;;;;;1.00;0.80;;;358.50;2329.60;;;;;;5002877;28;20108;-84
2023/11/11 17:01:08;;;;;;;1.23;0.95;;;358.50;2329.60;;;;;;5002824;28;20076;-84
2023/11/11 17:03:37;;;;;;;0.70;0.70;;;358.40;2329.60;;;;;;5003360;28;20053;-86
2023/11/11 17:06:09;;;;;;;1.17;1.08;;;358.40;2329.60;;;;;;5019835;28;20021;-86
2023/11/11 17:08:38;;;;;;;0.63;0.63;;;358.40;2329.60;;;;;;5005092;28;20025;-85
2023/11/11 17:11:08;;;;;;;0.73;0.73;;;333.70;2329.60;;;;;;5006179;28;20026;-83
2023/11/11 17:13:39;;;;;;;0.75;0.70;;;333.70;2329.60;;;;;;5006161;28;20113;-84
2023/11/11 17:16:05;;;;;;;1.02;0.82;;;333.70;2329.60;;;;;;5003232;28;20022;-85
2023/11/11 17:18:31;;;;;;;1.00;0.80;;;333.70;2329.60;;;;;;5003859;28;20088;-82
2023/11/11 17:20:57;;;;;;;1.13;0.90;;;333.60;2329.60;;;;;;5003056;28;20392;-80
2023/11/11 17:23:24;;;;;;;1.10;0.80;;;333.60;2329.60;;;;;;5003905;28;20032;-81
2023/11/11 17:25:51;;;;;;;0.82;0.70;;;333.60;2329.60;;;;;;5001864;28;20402;-84
2023/11/11 17:29:07;;;;;;;0.88;0.82;;;333.50;2329.60;;;;;;5012456;28;20120;-90
2023/11/11 17:32:32;;;;;;;0.70;0.68;;;333.60;2329.60;;;;;;4932250;29;20092;-91
2023/11/11 17:39:18;;;;;;;0.95;0.80;;;333.60;2329.60;;;;;;4896249;29;20048;-89
2023/11/11 17:46:14;;;;;;;1.58;1.00;;;333.60;2329.60;;;;;;4893793;29;20035;-89
2023/11/11 17:49:19;;;;;;;0.80;0.70;;;333.60;2329.60;;;;;;4874188;29;20052;-88
2023/11/11 17:52:47;;;;;;;0.80;0.68;;;333.50;2329.60;;;;;;4874693;29;20085;-88
2023/11/11 18:16:57;;;;;;;0.88;0.70;;;333.40;2329.60;;;;;;5062230;28;20083;-89
2023/11/11 18:20:30;;;;;;;2.88;1.00;;;333.40;2329.60;;;;;;4958521;29;20051;-88
2023/11/11 18:30:30;;;;;;;1.13;0.80;;;333.20;2329.60;;;;;;4971348;29;20502;-90
2023/11/11 18:40:44;;;;;;;1.42;1.08;;;333.10;2329.60;;;;;;4876970;29;20063;-89
2023/11/11 18:43:49;;;;;;;1.23;1.13;;;333.00;2329.60;;;;;;4878525;29;20049;-91
2023/11/11 19:01:54;;;;;;;0.85;0.80;;;308.10;2304.00;;;;;;4670865;30;20070;-90
2023/11/11 19:05:15;;;;;;;0.88;0.70;;;308.10;2304.00;;;;;;4681255;30;20090;-90
2023/11/11 19:14:37;;;;;;;1.00;0.90;;;307.80;2304.00;;;;;;5031868;28;20128;-90
2023/11/11 19:17:24;;;;;;;1.58;0.90;;;307.80;2304.00;;;;;;4974511;28;20035;-90
2023/11/11 19:20:40;;;;;;;1.00;0.80;;;307.80;2304.00;;;;;;4958748;29;20027;-90
2023/11/11 20:06:25;;;;;;;1.17;0.90;;;307.20;2304.00;;;;;;5017282;28;20056;-90
2023/11/11 20:09:32;;;;;;;0.80;0.70;;;282.50;2278.40;;;;;;5001824;28;20089;-87
2023/11/11 20:17:03;;;;;;;0.73;0.70;;;282.50;2278.40;;;;;;4912198;29;20044;-88
2023/11/11 20:23:25;;;;;;;4.10;0.90;;;282.50;2278.40;;;;;;4777000;30;20147;-83
2023/11/11 20:25:51;;;;;;;0.77;0.70;;;282.40;2278.40;;;;;;4774445;30;20035;-82
2023/11/11 20:28:18;;;;;;;0.80;0.70;;;282.30;2278.40;;;;;;4770759;30;20040;-81
2023/11/11 20:30:45;;;;;;;1.20;0.90;;;;;;;;;;4773896;30;20036;-80
2023/11/11 20:33:11;;;;;;;0.70;0.70;;;;;;;;;;4759282;30;20052;-82
2023/11/11 20:35:41;;;;;;;0.65;0.60;;;;;;;;;;4775732;30;20092;-80
2023/11/11 20:38:07;;;;;;;0.80;0.68;;;;;;;;;;4790082;29;20137;-81
2023/11/11 20:40:34;;;;;;;0.80;0.73;;;;;;;;;;4790534;30;20032;-82
2023/11/11 20:43:00;;;;;;;0.80;0.77;;;;;;;;;;4776504;30;20036;-80
2023/11/11 20:45:27;;;;;;;0.65;0.60;;;;;;;;;;4790770;30;20043;-79
2023/11/11 20:47:53;;;;;;;1.30;0.93;;;;;;;;;;4805332;29;20077;-84
2023/11/11 20:50:19;;;;;;;1.00;0.80;;;;;;;;;;4805368;29;20166;-81
2023/11/11 20:52:47;;;;;;;0.80;0.70;;;;;;;;;;4823123;29;20045;-80
2023/11/11 20:55:14;;;;;;;0.70;0.63;;;;;;;;;;4879695;29;20122;-80
2023/11/11 20:57:43;;;;;;;0.80;0.70;;;;;;;;;;4942990;29;20530;-81
2023/11/11 21:00:10;;;;;;;0.90;0.80;;;;;;;;;;5001450;28;20042;-85
2023/11/11 21:02:36;;;;;;;1.45;0.90;;;;;;;;;;5021690;28;20586;-83
2023/11/11 21:05:03;;;;;;;0.88;0.70;;;;;;;;;;5021555;28;20487;-84
2023/11/11 21:07:33;;;;;;;0.70;0.70;;;;;;;;;;5022459;28;20025;-84
2023/11/11 21:10:00;;;;;;;0.82;0.73;;;;;;;;;;5021724;28;20030;-82
2023/11/11 21:12:27;;;;;;;3.17;1.13;;;;;;;;;;5022066;28;20508;-85
2023/11/11 21:14:54;;;;;;;0.80;0.70;;;;;;;;;;5023253;28;20060;-83
2023/11/11 21:17:22;;;;;;;0.70;0.70;;;;;;;;;;5022485;28;20120;-85
2023/11/11 21:19:48;;;;;;;0.90;0.75;;;;;;;;;;5022185;28;20068;-88
2023/11/11 21:22:18;;;;;;;1.35;1.15;;;;;;;;;;5045614;28;20033;-80
2023/11/11 21:24:44;;;;;;;6.38;1.17;;;;;;;;;;5021420;28;20037;-84
2023/11/11 21:27:10;;;;;;;1.10;0.80;;;;;;;;;;5021202;28;20030;-84
2023/11/11 21:29:37;;;;;;;3.10;0.80;;;;;;;;;;5039537;28;20037;-82
2023/11/11 21:32:04;;;;;;;0.77;0.75;;;;;;;;;;5060314;28;20024;-82
2023/11/11 21:34:30;;;;;;;1.42;0.98;;;;;;;;;;5040142;28;20100;-82
2023/11/11 21:36:56;;;;;;;1.98;0.90;;;;;;;;;;5039877;28;20025;-81
2023/11/11 21:39:22;;;;;;;3.08;1.45;;;;;;;;;;5043934;28;20496;-84
2023/11/11 21:41:48;;;;;;;0.90;0.75;;;;;;;;;;5043293;28;20028;-82
2023/11/11 21:44:15;;;;;;;1.17;1.00;;;;;;;;;;5027996;28;20018;-83
2023/11/11 21:46:41;;;;;;;1.23;1.08;;;;;;;;;;5020711;28;20466;-84
2023/11/11 21:49:07;;;;;;;0.95;0.80;;;;;;;;;;5020987;28;20079;-81
2023/11/11 21:51:33;;;;;;;0.93;0.70;;;;;;;;;;5039171;28;20025;-80
2023/11/11 21:53:59;;;;;;;1.27;0.65;;;;;;;;;;5022319;28;20385;-82
2023/11/11 21:56:25;;;;;;;0.80;0.80;;;;;;;;;;5021908;28;20021;-79
2023/11/11 21:58:52;;;;;;;0.88;0.82;;;;;;;;;;5022772;28;20029;-82
2023/11/11 22:01:18;;;;;;;1.63;1.30;;;;;;;;;;5023304;28;20053;-79
2023/11/11 22:03:44;;;;;;;0.82;0.73;;;;;;;;;;5038235;28;20022;-81
2023/11/11 22:06:11;;;;;;;0.90;0.77;;;;;;;;;;5039953;28;20040;-81
2023/11/11 22:08:37;;;;;;;1.13;0.90;;;;;;;;;;5039109;28;20029;-81
2023/11/11 22:11:05;;;;;;;1.48;1.35;;;;;;;;;;5037852;28;20028;-80
2023/11/11 22:13:31;;;;;;;0.70;0.70;;;;;;;;;;5039388;28;20587;-80
2023/11/11 22:15:58;;;;;;;1.55;1.42;;;;;;;;;;5037778;28;20049;-80
2023/11/11 22:18:25;;;;;;;0.82;0.70;;;;;;;;;;5039397;28;20029;-82
2023/11/11 22:20:52;;;;;;;1.63;0.98;;;;;;;;;;5037456;28;20029;-80
2023/11/11 22:23:18;;;;;;;0.82;0.80;;;;;;;;;;5036551;28;20032;-81
2023/11/11 22:25:45;;;;;;;1.38;1.25;;;;;;;;;;5038292;28;20018;-81
2023/11/11 22:28:11;;;;;;;0.70;0.70;;;;;;;;;;5037656;28;20029;-80
2023/11/11 22:30:38;;;;;;;0.98;0.82;;;;;;;;;;5038890;28;20060;-80
2023/11/11 22:33:04;;;;;;;0.80;0.70;;;;;;;;;;5039044;28;20026;-81
2023/11/11 22:35:31;;;;;;;0.73;0.68;;;;;;;;;;5039586;28;20110;-79
2023/11/11 22:37:58;;;;;;;0.90;0.80;;;;;;;;;;5037647;28;20093;-79
2023/11/11 22:40:24;;;;;;;0.73;0.73;;;256.50;2252.80;;;;;;5043268;28;20158;-80
2023/11/11 22:42:50;;;;;;;0.80;0.70;;;256.30;2252.80;;;;;;5058388;28;20049;-81
2023/11/11 22:45:17;;;;;;;0.80;0.70;;;256.30;2252.80;;;;;;5059654;28;20059;-81
2023/11/11 22:47:46;;;;;;;0.93;0.75;;;256.20;2252.80;;;;;;5061913;28;20137;-81
2023/11/11 22:50:14;;;;;;;1.05;0.85;;;256.00;2252.80;;;;;;5056915;28;20025;-79
2023/11/11 22:52:41;;;;;;;0.93;0.70;;;231.30;2252.80;;;;;;5056973;28;20032;-79
2023/11/11 22:55:08;;;;;;;0.68;0.68;;;231.20;2252.80;;;;;;5062887;28;20032;-81
2023/11/11 22:57:33;;;;;;;1.00;0.80;;;231.20;2252.80;;;;;;5057978;28;20029;-80
2023/11/11 22:59:59;;;;;;;1.05;0.95;;;231.20;2252.80;;;;;;5076886;28;20029;-82
2023/11/11 23:02:26;;;;;;;4.18;1.10;;;231.20;2252.80;;;;;;5059401;28;20107;-80
2023/11/11 23:04:52;;;;;;;0.80;0.70;;;231.10;2252.80;;;;;;5055386;28;20071;-82
2023/11/11 23:07:18;;;;;;;0.93;0.80;;;230.70;2252.80;;;;;;5057430;28;20391;-81
2023/11/11 23:09:44;;;;;;;1.27;1.10;;;230.70;2252.80;;;;;;5058719;28;20100;-81
2023/11/11 23:12:10;;;;;;;1.52;1.17;;;230.80;2252.80;;;;;;5059977;28;20025;-79
2023/11/11 23:14:36;;;;;;;0.82;0.80;;;230.90;2252.80;;;;;;5058764;28;20025;-80
2023/11/11 23:17:02;;;;;;;1.27;1.10;;;230.90;2252.80;;;;;;5058684;28;20103;-82
2023/11/11 23:19:28;;;;;;;0.90;0.80;;;230.90;2252.80;;;;;;5058714;28;20465;-79
2023/11/11 23:21:54;;;;;;;1.30;1.20;;;230.80;2252.80;;;;;;5059230;28;20485;-79
2023/11/11 23:24:20;;;;;;;1.35;1.00;;;230.80;2252.80;;;;;;5058854;28;20028;-80
2023/11/11 23:26:47;;;;;;;1.20;1.10;;;230.80;2252.80;;;;;;5058406;28;20385;-81
2023/11/11 23:29:13;;;;;;;0.98;0.80;;;230.90;2252.80;;;;;;5057514;28;20029;-81
2023/11/11 23:31:39;;;;;;;0.82;0.73;;;230.80;2252.80;;;;;;5058789;28;20021;-80
2023/11/11 23:34:07;;;;;;;0.80;0.70;;;230.80;2252.80;;;;;;5061807;28;20025;-80
2023/11/11 23:36:33;;;;;;;3.58;1.17;;;230.70;2252.80;;;;;;5062112;28;20029;-82
2023/11/11 23:38:58;;;;;;;0.95;0.77;;;230.40;2252.80;;;;;;5062295;28;20051;-79
2023/11/11 23:41:24;;;;;;;0.77;0.77;;;205.70;2252.80;;;;;;5078043;28;20483;-81
2023/11/11 23:43:50;;;;;;;6.53;1.70;;;205.70;1049.60;;;;;;5061432;28;20025;-81
2023/11/11 23:46:16;;;;;;;2.00;1.10;;;230.40;2252.80;;;;;;5060879;28;20017;-82
2023/11/11 23:48:42;;;;;;;1.25;1.00;;;230.50;2252.80;;;;;;5065126;28;20037;-81
2023/11/11 23:51:10;;;;;;;8.52;2.50;;;230.60;2252.80;;;;;;5079539;28;20119;-82
2023/11/11 23:53:37;;;;;;;1.00;0.90;;;230.40;2252.80;;;;;;5061909;28;20029;-79
2023/11/11 23:56:04;;;;;;;0.77;0.77;;;231.20;2252.80;;;;;;5063878;28;20044;-81
2023/11/11 23:58:30;;;;;;;1.75;0.88;;;230.40;2252.80;;;;;;5045792;28;20041;-80
